createdAt,value
2018-09-04T00:00:10.805Z,89.62
2018-09-04T00:01:13.670Z,89.32
2018-09-04T00:02:17.012Z,89.33
2018-09-04T00:03:19.899Z,89.50
2018-09-04T00:04:22.769Z,89.79
2018-09-04T00:05:25.633Z,88.98
2018-09-04T00:06:28.513Z,90.23
2018-09-04T00:07:31.380Z,89.75
2018-09-04T00:08:34.573Z,89.56
2018-09-04T00:09:37.859Z,89.54
2018-09-04T00:10:40.988Z,89.40
2018-09-04T00:11:43.909Z,89.96
2018-09-04T00:12:46.789Z,89.53
2018-09-04T00:13:49.686Z,88.99
2018-09-04T00:14:52.939Z,89.49
2018-09-04T00:15:55.791Z,89.77
2018-09-04T00:16:58.639Z,89.32
2018-09-04T00:18:01.642Z,90.47
2018-09-04T00:19:04.534Z,90.48
2018-09-04T00:20:07.415Z,90.47
2018-09-04T00:21:10.669Z,90.41
2018-09-04T00:22:13.541Z,89.84
2018-09-04T00:23:16.419Z,90.33
2018-09-04T00:24:19.300Z,89.59
2018-09-04T00:25:22.812Z,89.83
2018-09-04T00:26:25.760Z,89.86
2018-09-04T00:27:29.564Z,89.78
2018-09-04T00:28:32.436Z,89.33
2018-09-04T00:29:35.378Z,89.89
2018-09-04T00:30:38.249Z,89.28
2018-09-04T00:31:41.162Z,89.35
2018-09-04T00:32:44.078Z,89.79
2018-09-04T00:33:47.282Z,89.54
2018-09-04T00:34:50.361Z,89.45
2018-09-04T00:35:53.348Z,89.57
2018-09-04T00:36:56.205Z,89.93
2018-09-04T00:37:59.082Z,89.88
2018-09-04T00:39:01.900Z,89.14
2018-09-04T00:40:06.119Z,89.44
2018-09-04T00:41:09.053Z,89.18
2018-09-04T00:42:11.961Z,89.77
2018-09-04T00:43:14.837Z,88.72
2018-09-04T00:44:18.647Z,89.39
2018-09-04T00:45:21.536Z,89.08
2018-09-04T00:46:24.822Z,89.20
2018-09-04T00:47:27.690Z,89.35
2018-09-04T00:48:30.534Z,90.00
2018-09-04T00:49:33.414Z,90.07
2018-09-04T00:50:36.377Z,89.82
2018-09-04T00:51:39.308Z,89.92
2018-09-04T00:52:42.469Z,90.15
2018-09-04T00:53:45.346Z,90.29
2018-09-04T00:54:48.212Z,90.59
2018-09-04T00:55:51.120Z,90.12
2018-09-04T00:56:54.050Z,89.94
2018-09-04T00:57:56.905Z,89.76
2018-09-04T00:59:00.167Z,90.20
2018-09-04T01:00:03.100Z,90.01
2018-09-04T01:01:06.028Z,90.12
2018-09-04T01:02:08.928Z,90.63
2018-09-04T01:03:11.869Z,90.58
2018-09-04T01:04:24.209Z,89.93
2018-09-04T01:05:27.841Z,90.36
2018-09-04T01:06:31.021Z,90.27
2018-09-04T01:07:34.253Z,89.71
2018-09-04T01:08:37.398Z,89.86
2018-09-04T01:09:40.248Z,89.26
2018-09-04T01:10:43.404Z,89.20
2018-09-04T01:11:46.285Z,90.26
2018-09-04T01:12:49.184Z,89.86
2018-09-04T01:13:52.059Z,89.84
2018-09-04T01:14:54.915Z,90.16
2018-09-04T01:15:57.787Z,89.53
2018-09-04T01:17:01.097Z,90.46
2018-09-04T01:18:03.968Z,90.24
2018-09-04T01:19:07.004Z,90.58
2018-09-04T01:20:10.517Z,89.85
2018-09-04T01:21:13.368Z,90.33
2018-09-04T01:22:16.210Z,89.95
2018-09-04T01:23:19.365Z,90.87
2018-09-04T01:24:22.228Z,89.94
2018-09-04T01:25:25.083Z,90.87
2018-09-04T01:26:27.966Z,90.26
2018-09-04T01:27:30.952Z,91.28
2018-09-04T01:28:34.118Z,90.45
2018-09-04T01:29:37.263Z,91.32
2018-09-04T01:30:41.801Z,90.84
2018-09-04T01:31:45.603Z,90.93
2018-09-04T01:32:48.456Z,90.96
2018-09-04T01:33:51.678Z,90.59
2018-09-04T01:34:54.513Z,91.15
2018-09-04T01:35:57.673Z,90.35
2018-09-04T01:37:00.535Z,91.14
2018-09-04T01:38:03.414Z,90.55
2018-09-04T01:39:06.275Z,90.37
2018-09-04T01:40:09.160Z,90.12
2018-09-04T01:41:12.048Z,89.99
2018-09-04T01:42:15.253Z,90.73
2018-09-04T01:43:18.104Z,90.59
2018-09-04T01:44:20.963Z,90.85
2018-09-04T01:45:23.803Z,90.99
2018-09-04T01:46:26.669Z,90.57
2018-09-04T01:47:29.513Z,91.04
2018-09-04T01:48:32.678Z,91.25
2018-09-04T01:49:35.525Z,90.58
2018-09-04T01:50:38.406Z,90.49
2018-09-04T01:51:41.257Z,91.02
2018-09-04T01:52:44.113Z,90.35
2018-09-04T01:53:46.948Z,90.80
2018-09-04T01:54:50.149Z,90.29
2018-09-04T01:55:53.063Z,90.40
2018-09-04T01:56:56.846Z,90.32
2018-09-04T01:57:59.693Z,90.19
2018-09-04T01:59:02.562Z,90.91
2018-09-04T02:00:05.622Z,90.48
2018-09-04T02:01:08.783Z,90.75
2018-09-04T02:02:11.621Z,90.59
2018-09-04T02:03:15.136Z,90.51
2018-09-04T02:04:18.003Z,90.62
2018-09-04T02:05:20.864Z,90.67
2018-09-04T02:06:23.759Z,90.29
2018-09-04T02:07:27.095Z,90.90
2018-09-04T02:08:29.980Z,90.61
2018-09-04T02:09:32.913Z,90.97
2018-09-04T02:10:35.771Z,91.20
2018-09-04T02:11:38.722Z,90.93
2018-09-04T02:12:41.595Z,90.91
2018-09-04T02:13:44.782Z,90.82
2018-09-04T02:14:47.635Z,90.35
2018-09-04T02:15:50.546Z,90.78
2018-09-04T02:16:53.527Z,90.65
2018-09-04T02:17:56.404Z,90.85
2018-09-04T02:18:59.261Z,90.31
2018-09-04T02:20:02.448Z,90.58
2018-09-04T02:21:05.297Z,90.67
2018-09-04T02:22:08.196Z,90.99
2018-09-04T02:23:11.151Z,90.61
2018-09-04T02:24:13.996Z,90.91
2018-09-04T02:25:16.880Z,90.39
2018-09-04T02:26:20.062Z,90.99
2018-09-04T02:27:22.982Z,90.54
2018-09-04T02:28:25.883Z,91.11
2018-09-04T02:29:28.779Z,91.31
2018-09-04T02:30:31.642Z,91.09
2018-09-04T02:31:34.505Z,90.88
2018-09-04T02:32:37.717Z,91.14
2018-09-04T02:33:40.581Z,90.94
2018-09-04T02:34:43.436Z,90.96
2018-09-04T02:35:46.334Z,90.32
2018-09-04T02:36:49.209Z,90.40
2018-09-04T02:37:52.110Z,91.03
2018-09-04T02:38:55.272Z,90.60
2018-09-04T02:39:58.137Z,90.39
2018-09-04T02:41:01.032Z,90.77
2018-09-04T02:42:03.901Z,90.65
2018-09-04T02:43:06.816Z,90.85
2018-09-04T02:44:09.752Z,90.37
2018-09-04T02:45:13.925Z,91.00
2018-09-04T02:46:16.828Z,90.71
2018-09-04T02:47:19.749Z,90.87
2018-09-04T02:48:22.633Z,90.72
2018-09-04T02:49:25.558Z,90.36
2018-09-04T02:50:28.441Z,91.03
2018-09-04T02:51:31.683Z,91.36
2018-09-04T02:52:34.589Z,90.76
2018-09-04T02:53:37.613Z,90.65
2018-09-04T02:54:40.492Z,91.01
2018-09-04T02:55:43.354Z,91.28
2018-09-04T02:56:46.205Z,91.42
2018-09-04T02:57:49.391Z,91.71
2018-09-04T02:58:52.361Z,91.82
2018-09-04T02:59:55.235Z,92.27
2018-09-04T03:00:58.109Z,92.61
2018-09-04T03:02:01.036Z,91.88
2018-09-04T03:03:03.914Z,92.36
2018-09-04T03:04:07.146Z,92.42
2018-09-04T03:05:10.068Z,91.70
2018-09-04T03:06:12.960Z,92.32
2018-09-04T03:07:15.822Z,92.11
2018-09-04T03:08:18.708Z,91.70
2018-09-04T03:09:21.568Z,92.44
2018-09-04T03:10:24.874Z,92.33
2018-09-04T03:11:27.799Z,92.33
2018-09-04T03:12:30.762Z,91.98
2018-09-04T03:13:33.696Z,91.64
2018-09-04T03:14:36.628Z,92.05
2018-09-04T03:15:39.509Z,92.28
2018-09-04T03:16:42.698Z,92.15
2018-09-04T03:17:45.545Z,91.51
2018-09-04T03:18:48.428Z,91.73
2018-09-04T03:19:51.300Z,91.44
2018-09-04T03:20:54.239Z,92.15
2018-09-04T03:21:57.126Z,91.58
2018-09-04T03:23:00.414Z,91.64
2018-09-04T03:24:03.306Z,91.66
2018-09-04T03:25:06.189Z,91.64
2018-09-04T03:26:09.078Z,91.68
2018-09-04T03:27:11.959Z,91.51
2018-09-04T03:28:14.828Z,91.57
2018-09-04T03:29:18.006Z,91.53
2018-09-04T03:30:20.890Z,91.03
2018-09-04T03:31:23.781Z,91.07
2018-09-04T03:32:26.690Z,91.19
2018-09-04T03:33:29.613Z,91.18
2018-09-04T03:34:32.525Z,91.45
2018-09-04T03:35:35.672Z,91.59
2018-09-04T03:36:38.769Z,90.84
2018-09-04T03:37:41.675Z,91.21
2018-09-04T03:38:44.543Z,91.27
2018-09-04T03:39:47.592Z,91.05
2018-09-04T03:40:50.453Z,91.57
2018-09-04T03:41:53.341Z,91.21
2018-09-04T03:42:56.293Z,91.26
2018-09-04T03:44:00.274Z,90.66
2018-09-04T03:45:03.279Z,91.41
2018-09-04T03:46:06.143Z,91.51
2018-09-04T03:47:10.129Z,90.94
2018-09-04T03:48:13.220Z,90.88
2018-09-04T03:49:16.101Z,91.19
2018-09-04T03:50:18.970Z,91.51
2018-09-04T03:51:21.868Z,91.83
2018-09-04T03:52:24.846Z,91.38
2018-09-04T03:53:28.014Z,91.35
2018-09-04T03:54:31.047Z,91.53
2018-09-04T03:55:33.898Z,91.53
2018-09-04T03:56:36.840Z,90.98
2018-09-04T03:57:39.688Z,90.99
2018-09-04T03:58:42.569Z,91.24
2018-09-04T03:59:45.768Z,91.39
2018-09-04T04:00:48.657Z,90.57
2018-09-04T04:01:51.526Z,90.42
2018-09-04T04:02:54.388Z,90.74
2018-09-04T04:03:57.229Z,90.68
2018-09-04T04:05:00.106Z,91.15
2018-09-04T04:06:03.001Z,90.67
2018-09-04T04:07:05.871Z,90.11
2018-09-04T04:08:08.749Z,91.18
2018-09-04T04:09:12.450Z,90.76
2018-09-04T04:10:15.294Z,90.72
2018-09-04T04:11:18.471Z,90.89
2018-09-04T04:12:21.337Z,90.77
2018-09-04T04:13:24.180Z,91.46
2018-09-04T04:14:27.060Z,90.83
2018-09-04T04:15:29.919Z,91.38
2018-09-04T04:16:32.772Z,90.86
2018-09-04T04:17:36.027Z,90.83
2018-09-04T04:18:38.985Z,91.62
2018-09-04T04:19:41.896Z,91.03
2018-09-04T04:21:00.643Z,91.58
2018-09-04T04:22:03.562Z,91.59
2018-09-04T04:23:06.656Z,91.59
2018-09-04T04:24:10.537Z,91.90
2018-09-04T04:25:13.437Z,91.21
2018-09-04T04:26:16.312Z,91.17
2018-09-04T04:27:19.184Z,91.28
2018-09-04T04:28:22.061Z,91.48
2018-09-04T04:29:25.023Z,90.82
2018-09-04T04:30:28.208Z,90.71
2018-09-04T04:31:31.030Z,91.09
2018-09-04T04:32:34.002Z,91.17
2018-09-04T04:33:36.882Z,90.85
2018-09-04T04:34:39.791Z,91.73
2018-09-04T04:35:42.749Z,91.64
2018-09-04T04:36:45.936Z,91.32
2018-09-04T04:37:48.786Z,91.47
2018-09-04T04:38:51.673Z,91.33
2018-09-04T04:39:54.683Z,91.85
2018-09-04T04:40:57.545Z,91.65
2018-09-04T04:42:00.427Z,91.49
2018-09-04T04:43:03.626Z,91.06
2018-09-04T04:44:06.509Z,91.50
2018-09-04T04:45:09.494Z,91.60
2018-09-04T04:46:13.492Z,90.98
2018-09-04T04:47:16.537Z,90.92
2018-09-04T04:48:19.745Z,91.37
2018-09-04T04:49:22.918Z,91.36
2018-09-04T04:50:25.801Z,90.92
2018-09-04T04:51:28.677Z,90.88
2018-09-04T04:52:31.607Z,91.12
2018-09-04T04:53:34.501Z,90.92
2018-09-04T04:54:37.489Z,90.43
2018-09-04T04:55:42.044Z,90.93
2018-09-04T04:56:44.914Z,91.09
2018-09-04T04:57:47.775Z,90.76
2018-09-04T04:58:50.663Z,89.95
2018-09-04T04:59:53.896Z,90.59
2018-09-04T05:00:57.714Z,90.93
2018-09-04T05:02:02.593Z,90.96
2018-09-04T05:03:05.506Z,90.44
2018-09-04T05:04:08.519Z,90.91
2018-09-04T05:05:11.407Z,91.27
2018-09-04T05:06:14.272Z,91.12
2018-09-04T05:07:17.167Z,90.88
2018-09-04T05:08:20.418Z,90.50
2018-09-04T05:09:23.392Z,91.25
2018-09-04T05:10:26.246Z,91.09
2018-09-04T05:11:29.164Z,90.73
2018-09-04T05:12:32.151Z,90.65
2018-09-04T05:13:35.151Z,90.64
2018-09-04T05:14:39.544Z,90.93
2018-09-04T05:15:42.486Z,90.73
2018-09-04T05:16:45.393Z,90.88
2018-09-04T05:17:48.335Z,90.53
2018-09-04T05:18:51.237Z,90.90
2018-09-04T05:19:54.335Z,90.97
2018-09-04T05:20:58.993Z,90.94
2018-09-04T05:22:01.882Z,90.82
2018-09-04T05:23:04.752Z,90.43
2018-09-04T05:24:07.605Z,90.98
2018-09-04T05:25:10.534Z,90.36
2018-09-04T05:26:14.307Z,90.28
2018-09-04T05:27:17.936Z,90.29
2018-09-04T05:28:20.815Z,90.53
2018-09-04T05:29:23.726Z,90.46
2018-09-04T05:30:26.635Z,90.79
2018-09-04T05:33:52.149Z,90.82
2018-09-04T05:34:55.052Z,90.43
2018-09-04T05:35:59.408Z,89.86
2018-09-04T05:37:02.293Z,90.78
2018-09-04T05:38:05.779Z,90.11
2018-09-04T05:39:08.928Z,90.43
2018-09-04T05:40:11.946Z,90.69
2018-09-04T05:41:14.989Z,90.51
2018-09-04T05:42:25.620Z,90.89
2018-09-04T05:43:37.432Z,90.92
2018-09-04T05:44:40.582Z,90.88
2018-09-04T05:45:44.020Z,90.40
2018-09-04T05:46:49.199Z,90.96
2018-09-04T05:47:55.967Z,90.75
2018-09-04T05:48:59.480Z,90.61
2018-09-04T05:50:02.941Z,91.30
2018-09-04T05:51:06.779Z,91.02
2018-09-04T05:52:09.962Z,91.33
2018-09-04T05:53:12.947Z,91.20
2018-09-04T05:54:15.946Z,90.73
2018-09-04T05:55:18.990Z,90.77
2018-09-04T05:56:21.908Z,90.15
2018-09-04T05:57:24.772Z,91.17
2018-09-04T05:58:27.985Z,91.11
2018-09-04T05:59:30.854Z,90.73
2018-09-04T06:01:04.350Z,90.22
2018-09-04T06:02:07.297Z,90.02
2018-09-04T06:03:10.232Z,90.43
2018-09-04T06:04:13.185Z,90.02
2018-09-04T06:05:16.833Z,90.25
2018-09-04T06:06:21.978Z,89.67
2018-09-04T06:07:25.294Z,89.67
2018-09-04T06:08:29.466Z,90.07
2018-09-04T06:09:32.341Z,90.25
2018-09-04T06:10:36.478Z,90.35
2018-09-04T06:11:41.272Z,90.61
2018-09-04T06:12:44.558Z,90.77
2018-09-04T06:13:47.528Z,91.23
2018-09-04T06:14:50.475Z,90.86
2018-09-04T06:15:53.382Z,90.28
2018-09-04T06:16:56.346Z,90.82
2018-09-04T06:17:59.503Z,90.67
2018-09-04T06:19:02.662Z,91.23
2018-09-04T06:20:05.602Z,91.23
2018-09-04T06:21:09.076Z,90.48
2018-09-04T06:22:11.977Z,90.88
2018-09-04T06:23:15.840Z,90.35
2018-09-04T06:24:20.975Z,91.36
2018-09-04T06:25:23.911Z,90.79
2018-09-04T06:26:26.799Z,90.54
2018-09-04T06:27:29.796Z,91.13
2018-09-04T06:28:32.677Z,90.76
2018-09-04T06:29:35.664Z,91.18
2018-09-04T06:30:39.116Z,91.16
2018-09-04T06:31:42.033Z,91.81
2018-09-04T06:32:45.931Z,92.37
2018-09-04T06:33:48.869Z,92.07
2018-09-04T06:34:51.774Z,91.92
2018-09-04T06:35:55.047Z,92.17
2018-09-04T06:36:58.376Z,92.18
2018-09-04T06:38:02.283Z,91.81
2018-09-04T06:39:05.650Z,92.00
2018-09-04T06:40:09.546Z,91.95
2018-09-04T06:41:12.448Z,91.33
2018-09-04T06:42:15.289Z,91.15
2018-09-04T06:43:18.770Z,91.66
2018-09-04T06:44:22.179Z,90.62
2018-09-04T06:45:25.603Z,91.55
2018-09-04T06:46:28.627Z,91.29
2018-09-04T06:47:32.446Z,91.19
2018-09-04T06:48:37.642Z,91.56
2018-09-04T06:49:41.826Z,91.25
2018-09-04T06:50:44.888Z,90.83
2018-09-04T06:51:48.880Z,91.82
2018-09-04T06:52:53.332Z,90.84
2018-09-04T06:53:56.270Z,91.05
2018-09-04T06:54:59.221Z,90.74
2018-09-04T06:56:02.614Z,91.43
2018-09-04T06:57:05.564Z,90.78
2018-09-04T06:58:08.519Z,91.33
2018-09-04T06:59:11.705Z,91.33
2018-09-04T07:00:15.517Z,91.28
2018-09-04T07:01:18.375Z,91.05
2018-09-04T07:02:21.589Z,91.12
2018-09-04T07:03:24.443Z,91.54
2018-09-04T07:04:27.413Z,91.51
2018-09-04T07:05:30.344Z,90.85
2018-09-04T07:06:33.282Z,91.05
2018-09-04T07:07:36.697Z,91.06
2018-09-04T07:08:39.910Z,90.42
2018-09-04T07:09:43.255Z,91.08
2018-09-04T07:10:46.185Z,90.65
2018-09-04T07:11:49.219Z,90.71
2018-09-04T07:12:52.760Z,90.11
2018-09-04T07:13:57.287Z,90.59
2018-09-04T07:15:02.173Z,90.62
2018-09-04T07:16:05.123Z,90.67
2018-09-04T07:17:08.212Z,90.68
2018-09-04T07:18:11.169Z,90.08
2018-09-04T07:19:17.018Z,90.25
2018-09-04T07:20:20.970Z,90.62
2018-09-04T07:21:24.224Z,90.53
2018-09-04T07:22:27.097Z,89.92
2018-09-04T07:23:30.548Z,89.68
2018-09-04T07:24:34.159Z,90.00
2018-09-04T07:25:38.256Z,89.73
2018-09-04T07:26:41.116Z,89.90
2018-09-04T07:27:44.381Z,89.81
2018-09-04T07:28:47.262Z,89.81
2018-09-04T07:29:52.491Z,88.61
2018-09-04T07:30:55.553Z,89.11
2018-09-04T07:31:59.104Z,88.85
2018-09-04T07:33:02.019Z,88.91
2018-09-04T07:34:05.477Z,88.99
2018-09-04T07:35:10.148Z,88.68
2018-09-04T07:36:16.535Z,88.94
2018-09-04T07:37:20.477Z,88.07
2018-09-04T07:38:23.373Z,87.91
2018-09-04T07:39:27.798Z,88.16
2018-09-04T07:40:35.440Z,87.97
2018-09-04T07:41:39.578Z,88.48
2018-09-04T07:42:42.588Z,88.78
2018-09-04T07:43:45.524Z,88.71
2018-09-04T07:44:48.661Z,88.21
2018-09-04T07:45:52.031Z,88.23
2018-09-04T07:46:54.986Z,87.72
2018-09-04T07:47:58.416Z,86.90
2018-09-04T07:49:01.324Z,87.62
2018-09-04T07:50:04.237Z,86.93
2018-09-04T07:51:07.528Z,87.49
2018-09-04T07:52:10.706Z,88.02
2018-09-04T07:53:14.526Z,86.72
2018-09-04T07:54:17.437Z,87.28
2018-09-04T07:55:20.308Z,87.23
2018-09-04T07:56:23.401Z,87.40
2018-09-04T07:57:27.481Z,86.43
2018-09-04T07:58:31.693Z,86.57
2018-09-04T07:59:35.635Z,85.53
2018-09-04T08:00:38.527Z,85.88
2018-09-04T08:01:41.500Z,85.15
2018-09-04T08:02:44.444Z,86.02
2018-09-04T08:03:48.472Z,84.81
2018-09-04T08:04:51.387Z,85.34
2018-09-04T08:05:54.324Z,85.41
2018-09-04T08:06:57.243Z,84.65
2018-09-04T08:08:01.582Z,85.14
2018-09-04T08:09:05.728Z,83.89
2018-09-04T08:10:09.530Z,83.69
2018-09-04T08:11:12.576Z,84.28
2018-09-04T08:12:15.453Z,83.90
2018-09-04T08:13:18.355Z,84.36
2018-09-04T08:14:21.277Z,84.03
2018-09-04T08:15:24.225Z,84.00
2018-09-04T08:16:27.521Z,83.59
2018-09-04T08:17:30.961Z,83.78
2018-09-04T08:18:36.384Z,83.11
2018-09-04T08:19:40.731Z,83.31
2018-09-04T08:20:44.420Z,83.22
2018-09-04T08:21:47.396Z,83.31
2018-09-04T08:22:51.916Z,83.59
2018-09-04T08:23:54.797Z,83.70
2018-09-04T08:24:58.256Z,83.34
2018-09-04T08:26:02.174Z,81.94
2018-09-04T08:27:06.077Z,81.02
2018-09-04T08:28:09.060Z,79.94
2018-09-04T08:29:12.208Z,79.95
2018-09-04T08:30:15.095Z,80.32
2018-09-04T08:31:18.027Z,79.46
2018-09-04T08:32:21.059Z,79.13
2018-09-04T08:33:23.975Z,78.74
2018-09-04T08:34:27.649Z,78.11
2018-09-04T08:35:31.889Z,79.07
2018-09-04T08:36:36.478Z,78.65
2018-09-04T08:37:39.417Z,77.57
2018-09-04T08:38:47.860Z,76.98
2018-09-04T08:39:52.322Z,76.79
2018-09-04T08:40:57.069Z,75.50
2018-09-04T08:42:01.081Z,74.17
2018-09-04T08:43:04.589Z,73.18
2018-09-04T08:44:07.529Z,73.90
2018-09-04T08:45:10.399Z,73.80
2018-09-04T08:46:13.359Z,74.77
2018-09-04T08:47:16.354Z,75.49
2018-09-04T08:48:20.669Z,74.37
2018-09-04T08:49:24.186Z,74.85
2018-09-04T08:50:27.881Z,74.73
2018-09-04T08:51:31.472Z,74.67
2018-09-04T08:52:37.704Z,73.89
2018-09-04T08:53:40.689Z,72.18
2018-09-04T08:54:43.670Z,72.35
2018-09-04T08:55:47.300Z,71.32
2018-09-04T08:56:51.692Z,71.33
2018-09-04T08:57:54.667Z,72.12
2018-09-04T08:58:57.561Z,70.83
2018-09-04T09:00:02.812Z,69.87
2018-09-04T09:01:06.443Z,67.97
2018-09-04T09:02:09.355Z,68.17
2018-09-04T09:03:13.345Z,67.26
2018-09-04T09:04:16.397Z,67.88
2018-09-04T09:05:20.484Z,67.23
2018-09-04T09:06:25.920Z,66.50
2018-09-04T09:07:28.799Z,67.01
2018-09-04T09:08:33.128Z,66.58
2018-09-04T09:09:36.232Z,67.75
2018-09-04T09:11:53.799Z,66.99
2018-09-04T09:12:57.676Z,68.00
2018-09-04T09:14:00.562Z,69.42
2018-09-04T09:15:04.441Z,71.24
2018-09-04T09:16:07.378Z,71.79
2018-09-04T09:17:10.567Z,70.76
2018-09-04T09:18:13.769Z,70.73
2018-09-04T09:19:16.691Z,72.56
2018-09-04T09:20:19.595Z,72.02
2018-09-04T09:21:23.306Z,71.94
2018-09-04T09:22:26.419Z,70.70
2018-09-04T09:23:30.088Z,70.58
2018-09-04T09:24:32.958Z,69.07
2018-09-04T09:25:35.881Z,67.30
2018-09-04T09:26:39.452Z,68.30
2018-09-04T09:27:46.105Z,69.35
2018-09-04T09:28:49.727Z,68.84
2018-09-04T09:29:56.946Z,68.10
2018-09-04T09:31:01.376Z,67.14
2018-09-04T09:32:05.450Z,68.35
2018-09-04T09:33:09.404Z,69.32
2018-09-04T09:34:12.323Z,68.21
2018-09-04T09:35:15.280Z,68.26
2018-09-04T09:36:18.744Z,68.24
2018-09-04T09:37:22.713Z,66.58
2018-09-04T09:38:26.222Z,67.26
2018-09-04T09:39:29.196Z,66.84
2018-09-04T09:40:32.189Z,67.60
2018-09-04T09:41:35.248Z,66.62
2018-09-04T09:42:38.633Z,66.61
2018-09-04T09:43:41.603Z,66.92
2018-09-04T09:44:46.153Z,67.55
2018-09-04T09:45:50.599Z,67.46
2018-09-04T10:33:08.687Z,59.99
2018-09-04T10:34:11.784Z,59.55
2018-09-04T10:35:15.465Z,59.10
2018-09-04T10:36:18.570Z,59.62
2018-09-04T10:37:23.132Z,58.20
2018-09-04T10:38:27.178Z,58.23
2018-09-04T10:39:35.482Z,56.90
2018-09-04T10:40:43.578Z,56.19
2018-09-04T10:41:46.459Z,56.02
2018-09-04T10:42:49.359Z,56.86
2018-09-04T10:43:52.245Z,57.70
2018-09-04T10:44:58.050Z,57.48
2018-09-04T10:46:06.346Z,57.63
2018-09-04T10:47:09.785Z,55.94
2018-09-04T10:48:15.049Z,55.14
2018-09-04T10:49:19.873Z,54.28
2018-09-04T10:50:24.680Z,54.26
2018-09-04T10:51:30.300Z,52.47
2018-09-04T10:52:33.218Z,52.81
2018-09-04T10:53:36.582Z,50.52
2018-09-04T10:54:39.821Z,53.20
2018-09-04T10:55:42.839Z,54.64
2018-09-04T10:56:45.865Z,54.46
2018-09-04T10:57:49.868Z,54.91
2018-09-04T10:58:52.929Z,55.17
2018-09-04T10:59:55.876Z,56.94
2018-09-04T11:00:59.262Z,56.79
2018-09-04T11:02:02.329Z,55.99
2018-09-04T11:03:06.478Z,54.31
2018-09-04T11:04:09.732Z,53.54
2018-09-04T11:05:15.300Z,52.47
2018-09-04T11:06:18.243Z,51.75
2018-09-04T11:07:21.191Z,50.54
2018-09-04T11:08:25.055Z,50.77
2018-09-04T11:09:28.523Z,52.01
2018-09-04T11:10:32.750Z,52.60
2018-09-04T11:11:35.624Z,52.11
2018-09-04T11:12:39.436Z,51.43
2018-09-04T11:13:44.020Z,50.63
2018-09-04T11:14:47.013Z,50.77
2018-09-04T11:15:50.861Z,51.62
2018-09-04T11:16:54.624Z,50.05
2018-09-04T11:17:57.829Z,50.12
2018-09-04T11:19:01.854Z,48.99
2018-09-04T11:20:04.835Z,48.28
2018-09-04T11:21:07.716Z,47.74
2018-09-04T11:22:10.661Z,46.90
2018-09-04T11:23:19.080Z,45.06
2018-09-04T11:24:22.942Z,44.64
2018-09-04T11:25:25.898Z,44.73
2018-09-04T11:26:29.001Z,45.44
2018-09-04T11:27:32.102Z,44.08
2018-09-04T11:28:34.994Z,44.09
2018-09-04T11:29:38.200Z,44.48
2018-09-04T11:30:41.120Z,43.77
2018-09-04T11:31:44.073Z,43.43
2018-09-04T11:32:47.014Z,43.32
2018-09-04T11:33:50.100Z,43.84
2018-09-04T11:34:53.305Z,46.31
2018-09-04T11:35:56.612Z,47.70
2018-09-04T11:36:59.487Z,49.88
2018-09-04T11:38:02.530Z,49.63
2018-09-04T11:39:05.588Z,49.29
2018-09-04T11:40:09.622Z,49.94
2018-09-04T11:41:14.600Z,50.07
2018-09-04T11:42:18.022Z,50.13
2018-09-04T11:43:23.193Z,51.57
2018-09-04T11:44:26.056Z,51.39
2018-09-04T11:45:29.304Z,50.54
2018-09-04T11:46:32.397Z,48.97
2018-09-04T11:47:35.308Z,50.61
2018-09-04T11:48:39.951Z,50.54
2018-09-04T11:49:44.124Z,48.96
2018-09-04T11:50:47.242Z,48.50
2018-09-04T11:51:50.172Z,47.73
2018-09-04T11:52:54.676Z,46.70
2018-09-04T11:53:58.465Z,47.12
2018-09-04T11:55:01.762Z,47.42
2018-09-04T11:57:14.632Z,47.67
2018-09-04T11:58:18.811Z,47.83
2018-09-04T11:59:23.349Z,47.93
2018-09-04T12:00:31.534Z,46.24
2018-09-04T12:01:34.829Z,45.00
2018-09-04T12:02:40.030Z,44.52
2018-09-04T12:03:43.247Z,44.84
2018-09-04T12:04:46.429Z,42.58
2018-09-04T12:05:49.490Z,42.14
2018-09-04T12:06:52.421Z,42.11
2018-09-04T12:07:55.283Z,42.82
2018-09-04T12:08:58.296Z,41.75
2018-09-04T12:10:02.262Z,40.98
2018-09-04T12:11:05.193Z,41.10
2018-09-04T12:12:08.488Z,41.85
2018-09-04T12:13:11.505Z,41.41
2018-09-04T12:14:17.476Z,42.08
2018-09-04T12:15:20.374Z,43.60
2018-09-04T12:16:23.441Z,44.32
2018-09-04T12:17:26.382Z,45.24
2018-09-04T12:18:30.277Z,43.50
2018-09-04T12:19:33.826Z,42.17
2018-09-04T12:20:36.843Z,42.78
2018-09-04T12:21:39.841Z,41.83
2018-09-04T12:22:43.080Z,42.49
2018-09-04T12:23:46.090Z,44.63
2018-09-04T12:24:50.382Z,45.42
2018-09-04T12:25:55.355Z,46.44
2018-09-04T12:26:58.252Z,46.86
2018-09-04T12:28:02.644Z,47.19
2018-09-04T12:29:05.528Z,45.27
2018-09-04T12:30:08.444Z,42.50
2018-09-04T12:31:13.006Z,46.12
2018-09-04T12:32:15.903Z,45.97
2018-09-04T12:33:18.813Z,45.11
2018-09-04T12:34:23.350Z,43.52
2018-09-04T12:35:26.315Z,43.89
2018-09-04T12:36:30.347Z,42.11
2018-09-04T12:37:33.606Z,40.80
2018-09-04T12:38:38.839Z,41.49
2018-09-04T12:39:45.743Z,41.55
2018-09-04T12:40:49.369Z,40.10
2018-09-04T12:41:53.456Z,41.38
2018-09-04T12:42:57.496Z,41.58
2018-09-04T12:44:00.828Z,41.06
2018-09-04T12:45:04.425Z,43.20
2018-09-04T12:46:07.348Z,44.54
2018-09-04T12:47:11.318Z,45.78
2018-09-04T12:48:18.612Z,45.25
2018-09-04T12:49:22.532Z,47.22
2018-09-04T12:50:25.752Z,47.64
2018-09-04T12:51:28.686Z,47.91
2018-09-04T12:52:31.599Z,47.63
2018-09-04T12:53:34.963Z,47.93
2018-09-04T12:54:37.903Z,48.95
2018-09-04T12:55:40.786Z,49.51
2018-09-04T12:56:43.993Z,50.13
2018-09-04T12:57:47.821Z,49.79
2018-09-04T12:58:50.762Z,50.58
2018-09-04T12:59:55.852Z,51.26
2018-09-04T13:01:00.250Z,52.09
2018-09-04T13:02:03.166Z,52.31
2018-09-04T13:03:06.468Z,53.85
2018-09-04T13:04:09.437Z,54.29
2018-09-04T13:05:12.443Z,53.78
2018-09-04T13:06:15.375Z,54.75
2018-09-04T13:07:18.355Z,54.14
2018-09-04T13:08:22.477Z,55.15
2018-09-04T13:09:26.691Z,54.64
2018-09-04T13:10:29.616Z,55.88
2018-09-04T13:11:32.541Z,55.84
2018-09-04T13:12:36.906Z,55.62
2018-09-04T13:13:40.569Z,56.19
2018-09-04T13:14:45.301Z,56.46
2018-09-04T13:15:50.562Z,56.38
2018-09-04T13:16:53.533Z,57.56
2018-09-04T13:17:57.438Z,58.98
2018-09-04T13:19:00.490Z,60.53
2018-09-04T13:20:04.332Z,61.96
2018-09-04T13:21:07.317Z,63.27
2018-09-04T13:22:11.193Z,63.57
2018-09-04T13:23:14.067Z,65.00
2018-09-04T13:24:17.793Z,65.23
2018-09-04T13:25:20.732Z,64.81
2018-09-04T13:26:23.899Z,64.57
2018-09-04T13:27:26.825Z,66.25
2018-09-04T13:28:31.349Z,65.98
2018-09-04T13:29:34.247Z,66.66
2018-09-04T13:30:39.622Z,66.18
2018-09-04T13:31:42.524Z,66.37
2018-09-04T13:32:46.320Z,65.68
2018-09-04T13:33:49.233Z,65.91
2018-09-04T13:34:53.427Z,66.12
2018-09-04T13:35:56.952Z,66.01
2018-09-04T13:37:02.106Z,66.56
2018-09-04T13:38:05.140Z,66.63
2018-09-04T13:39:08.489Z,66.07
2018-09-04T13:40:12.474Z,67.10
2018-09-04T13:41:15.383Z,66.92
2018-09-04T13:42:19.066Z,67.62
2018-09-04T13:43:23.640Z,67.94
2018-09-04T13:44:26.748Z,68.21
2018-09-04T13:45:34.237Z,67.87
2018-09-04T13:46:38.490Z,67.30
2018-09-04T13:47:41.363Z,66.58
2018-09-04T13:48:44.336Z,65.09
2018-09-04T13:49:47.311Z,64.90
2018-09-04T13:50:51.288Z,65.18
2018-09-04T13:51:57.282Z,65.38
2018-09-04T13:53:01.377Z,66.14
2018-09-04T13:54:05.860Z,67.70
2018-09-04T13:55:10.091Z,67.14
2018-09-04T13:56:12.998Z,68.19
2018-09-04T13:57:16.556Z,69.40
2018-09-04T13:58:20.495Z,69.25
2018-09-04T13:59:24.959Z,70.76
2018-09-04T14:00:29.379Z,71.40
2018-09-04T14:01:32.272Z,74.00
2018-09-04T14:02:35.965Z,75.46
2018-09-04T14:03:39.130Z,77.41
2018-09-04T14:04:50.463Z,77.68
2018-09-04T14:05:55.563Z,78.89
2018-09-04T14:07:01.695Z,78.92
2018-09-04T14:08:05.634Z,78.94
2018-09-04T14:09:12.199Z,79.92
2018-09-04T14:10:15.383Z,79.42
2018-09-04T14:11:18.480Z,79.77
2018-09-04T14:12:21.390Z,79.18
2018-09-04T14:13:24.720Z,80.02
2018-09-04T14:14:27.677Z,79.38
2018-09-04T14:15:30.617Z,78.17
2018-09-04T14:16:43.146Z,79.01
2018-09-04T14:17:38.668Z,77.43
2018-09-04T14:18:43.247Z,77.02
2018-09-04T14:19:46.326Z,76.33
2018-09-04T14:20:49.411Z,76.64
2018-09-04T14:21:53.710Z,75.66
2018-09-04T14:22:57.644Z,76.53
2018-09-04T14:24:00.659Z,75.35
2018-09-04T14:25:03.633Z,75.14
2018-09-04T14:26:06.531Z,74.10
2018-09-04T14:27:09.433Z,73.52
2018-09-04T14:28:12.327Z,71.21